M I D A S
Marine Information and Data Acquisition System
Tripno 2299 of the Zeeleeuw from 2012-01-11 06:06:48 to 2012-01-11 17:57:11
Back to CruiseResearch ActivitiesStationsMapUnderway DataData graphs

EquipmentUnitsComment
TimeDGPSUTC
LatitudeDGPSDM.mWGS84
LongitudeDGPSDM.mWGS84
HeadingGyrodeg 
SOGDGPSknotsSpeed over ground
COGDGPSdegCourse over ground
DepthEcho soundermeters200 kHz
Missing or incorrect values are displayed as -999
Navigation data collected by the RV Zeeleeuw from 2012-01-11 06:01:34 to 2012-01-11 18:05:45
                                                                                    Next 1000 lines
Time Latitude Longitude Heading SOG COG Depth
2012-01-11 06:01:44 51°13.637 2°56.011 103.8 1.5 289 8.2
2012-01-11 06:01:48 51°13.637 2°56.008 103.3 2.1 289 8.2
2012-01-11 06:01:53 51°13.639 2°56.002 103.1 2.7 288 8.2
2012-01-11 06:01:59 51°13.64 2°55.995 103 3.1 289 -999
2012-01-11 06:02:04 51°13.642 2°55.987 103.6 3.6 288 -999
2012-01-11 06:02:10 51°13.644 2°55.977 103.7 4 288 -999
2012-01-11 06:02:16 51°13.647 2°55.967 103.5 4.2 288 -999
2012-01-11 06:02:21 51°13.648 2°55.959 103.5 4.1 286 -999
2012-01-11 06:02:26 51°13.65 2°55.95 103.5 4.1 286 -999
2012-01-11 06:02:31 51°13.652 2°55.94 103.4 4.3 286 -999
2012-01-11 06:02:36 51°13.653 2°55.931 103.7 4.4 286 -999
2012-01-11 06:02:41 51°13.654 2°55.921 104.6 4.5 287 -999
2012-01-11 06:02:46 51°13.656 2°55.911 105.7 4.5 287 -999
2012-01-11 06:02:51 51°13.658 2°55.902 107.1 4.5 288 -999
2012-01-11 06:02:56 51°13.66 2°55.893 108.9 4.5 290 -999
2012-01-11 06:03:01 51°13.663 2°55.883 110.9 4.5 292 -999
2012-01-11 06:03:06 51°13.665 2°55.874 113.3 4.6 293 -999
2012-01-11 06:03:11 51°13.668 2°55.865 115.5 4.8 296 -999
2012-01-11 06:03:16 51°13.671 2°55.855 117.4 4.9 298 -999
2012-01-11 06:03:21 51°13.674 2°55.846 119 5 300 -999
2012-01-11 06:03:26 51°13.678 2°55.836 121.3 5.1 302 -999
2012-01-11 06:03:31 51°13.682 2°55.827 123.2 5.2 304 -999
2012-01-11 06:03:36 51°13.686 2°55.817 125 5.3 306 -999
2012-01-11 06:03:41 51°13.691 2°55.808 126.8 5.4 307 -999
2012-01-11 06:03:46 51°13.695 2°55.798 128.5 5.4 309 -999
2012-01-11 06:03:51 51°13.7 2°55.789 129.7 5.5 311 -999
2012-01-11 06:03:56 51°13.705 2°55.78 130.6 5.5 312 -999
2012-01-11 06:04:01 51°13.71 2°55.771 131.7 5.6 313 -999
2012-01-11 06:04:06 51°13.716 2°55.762 132.9 5.6 315 -999
2012-01-11 06:04:12 51°13.723 2°55.751 134.2 5.7 316 -999
2012-01-11 06:04:16 51°13.728 2°55.744 135.3 5.7 317 -999
2012-01-11 06:04:21 51°13.733 2°55.736 136.4 5.8 318 -999
2012-01-11 06:04:26 51°13.74 2°55.727 137.1 5.8 318 -999
2012-01-11 06:04:31 51°13.746 2°55.719 137.7 5.8 319 -999
2012-01-11 06:04:36 51°13.752 2°55.71 138.4 5.8 319 -999
2012-01-11 06:04:41 51°13.758 2°55.702 139.3 5.8 320 -999
2012-01-11 06:04:46 51°13.764 2°55.694 140.4 5.8 321 -999
2012-01-11 06:04:51 51°13.77 2°55.686 141.8 5.7 322 -999
2012-01-11 06:04:56 51°13.776 2°55.679 143.4 5.7 323 -999
2012-01-11 06:05:01 51°13.783 2°55.671 145.2 5.7 325 -999
2012-01-11 06:05:06 51°13.789 2°55.664 147.4 5.7 327 -999
2012-01-11 06:05:11 51°13.796 2°55.658 149.9 5.7 330 -999
2012-01-11 06:05:16 51°13.803 2°55.652 152.7 5.7 332 -999
2012-01-11 06:05:22 51°13.811 2°55.645 155.7 5.7 334 -999
2012-01-11 06:05:26 51°13.817 2°55.641 158.3 5.7 338 -999
2012-01-11 06:05:31 51°13.825 2°55.637 161.1 5.7 340 -999
2012-01-11 06:05:36 51°13.833 2°55.633 163.8 5.8 343 -999
2012-01-11 06:05:41 51°13.84 2°55.63 166 5.8 346 -999
2012-01-11 06:05:47 51°13.85 2°55.627 169.2 5.8 349 -999
2012-01-11 06:05:51 51°13.856 2°55.625 171.7 5.8 351 -999
2012-01-11 06:05:56 51°13.864 2°55.623 174.1 5.8 353 -999
2012-01-11 06:06:01 51°13.872 2°55.622 175.9 5.7 355 -999
2012-01-11 06:06:07 51°13.881 2°55.622 178.7 5.5 358 -999
2012-01-11 06:06:12 51°13.889 2°55.622 181 5.3 -999 -999
2012-01-11 06:06:16 51°13.894 2°55.622 183.3 5.2 1 -999
2012-01-11 06:06:21 51°13.901 2°55.622 185.1 5 4 -999
2012-01-11 06:06:26 51°13.908 2°55.623 187.8 4.9 6 -999
2012-01-11 06:06:31 51°13.914 2°55.625 190.1 4.7 8 -999
2012-01-11 06:06:36 51°13.92 2°55.626 192.4 4.5 10 -999
2012-01-11 06:06:41 51°13.926 2°55.628 194.3 4.3 12 -999
2012-01-11 06:06:46 51°13.932 2°55.63 196.4 4.1 14 -999
2012-01-11 06:06:51 51°13.937 2°55.633 198.9 3.9 15 -999
2012-01-11 06:06:56 51°13.942 2°55.635 200.5 3.7 17 -999
2012-01-11 06:07:01 51°13.946 2°55.637 202.1 3.4 19 -999
2012-01-11 06:07:06 51°13.951 2°55.64 203.7 3.3 20 -999
2012-01-11 06:07:11 51°13.955 2°55.642 205.2 3.1 22 -999
2012-01-11 06:07:16 51°13.959 2°55.645 206.5 3 22 -999
2012-01-11 06:07:21 51°13.962 2°55.647 208.3 2.7 24 -999
2012-01-11 06:07:26 51°13.965 2°55.65 210.5 2.5 26 -999
2012-01-11 06:07:31 51°13.968 2°55.652 213.2 2.3 27 -999
2012-01-11 06:07:36 51°13.971 2°55.654 215.7 2.1 29 -999
2012-01-11 06:07:41 51°13.973 2°55.656 217.7 1.9 29 -999
2012-01-11 06:07:46 51°13.975 2°55.658 219.7 1.5 31 9.2
2012-01-11 06:07:51 51°13.976 2°55.659 222.2 1.1 28 -999
2012-01-11 06:07:56 51°13.977 2°55.66 225.1 0.8 19 -999
2012-01-11 06:08:01 51°13.978 2°55.66 229.3 0.4 342 -999
2012-01-11 06:08:06 51°13.978 2°55.659 235.2 0.6 278 -999
2012-01-11 06:08:11 51°13.978 2°55.657 239.8 1 266 -999
2012-01-11 06:08:16 51°13.977 2°55.653 247.7 1.4 267 -999
2012-01-11 06:08:21 51°13.977 2°55.65 253.4 1.7 269 -999
2012-01-11 06:08:27 51°13.977 2°55.644 260.6 2.1 276 -999
2012-01-11 06:08:32 51°13.978 2°55.639 267.6 2.4 280 -999
2012-01-11 06:08:36 51°13.979 2°55.634 274.7 2.7 285 -999
2012-01-11 06:08:41 51°13.98 2°55.628 281.1 3 288 -999
2012-01-11 06:08:46 51°13.982 2°55.621 285.5 3.4 295 -999
2012-01-11 06:08:51 51°13.984 2°55.614 290.1 3.7 296 -999
2012-01-11 06:08:56 51°13.987 2°55.606 294.4 4 299 -999
2012-01-11 06:09:01 51°13.99 2°55.598 297.8 4.3 303 9.9
2012-01-11 06:09:06 51°13.994 2°55.59 300.6 4.6 305 -999
2012-01-11 06:09:11 51°13.998 2°55.581 303 4.7 306 -999
2012-01-11 06:09:16 51°14.002 2°55.573 304.9 4.9 308 9.9
2012-01-11 06:09:21 51°14.007 2°55.564 305.9 5.1 310 -999
2012-01-11 06:09:26 51°14.012 2°55.555 306.7 5.4 311 -999
2012-01-11 06:09:31 51°14.017 2°55.546 307.6 5.5 312 9.9
2012-01-11 06:09:36 51°14.022 2°55.537 308.5 5.7 313 9.8
2012-01-11 06:09:41 51°14.028 2°55.528 309.7 5.8 315 9.8
2012-01-11 06:09:46 51°14.034 2°55.518 311 5.9 316 9.8
2012-01-11 06:09:51 51°14.04 2°55.509 312.7 6 318 -999
2012-01-11 06:09:56 51°14.046 2°55.501 315.1 6 320 -999
2012-01-11 06:10:01 51°14.052 2°55.492 317.5 6.1 323 9.8
2012-01-11 06:10:06 51°14.059 2°55.484 319.7 6.2 324 -999
2012-01-11 06:10:11 51°14.066 2°55.476 321.9 6.3 325 9.7
2012-01-11 06:10:16 51°14.074 2°55.468 323.1 6.4 326 -999
2012-01-11 06:10:21 51°14.081 2°55.46 324.2 6.5 327 -999
2012-01-11 06:10:26 51°14.089 2°55.452 325.2 6.7 327 -999
2012-01-11 06:10:31 51°14.097 2°55.444 325.7 6.9 327 9.9
2012-01-11 06:10:36 51°14.106 2°55.436 325.9 7 327 -999
2012-01-11 06:10:41 51°14.115 2°55.428 326.3 7.3 328 10.1
2012-01-11 06:10:46 51°14.123 2°55.42 327.4 7.3 329 -999
2012-01-11 06:10:51 51°14.132 2°55.411 328.5 7.3 329 9.8
2012-01-11 06:10:56 51°14.141 2°55.402 328.6 7.6 329 -999
2012-01-11 06:11:01 51°14.151 2°55.394 328.6 7.8 330 -999
2012-01-11 06:11:06 51°14.16 2°55.385 329.5 7.8 330 9.8
2012-01-11 06:11:11 51°14.169 2°55.377 330.8 7.9 331 9.8
2012-01-11 06:11:16 51°14.18 2°55.368 331.6 8.1 331 9.8
2012-01-11 06:11:21 51°14.19 2°55.361 331.8 8.2 333 -999
2012-01-11 06:11:26 51°14.2 2°55.352 332.3 8.4 334 -999
2012-01-11 06:11:31 51°14.211 2°55.344 334 8.5 335 9.9
2012-01-11 06:11:36 51°14.222 2°55.337 335.4 8.6 336 -999
2012-01-11 06:11:41 51°14.233 2°55.329 335.9 8.7 337 9.8
2012-01-11 06:11:46 51°14.244 2°55.322 336.7 8.9 338 9.8
2012-01-11 06:11:51 51°14.256 2°55.315 338.4 8.8 340 9.8
2012-01-11 06:11:56 51°14.268 2°55.308 340.4 9 339 -999
2012-01-11 06:12:01 51°14.279 2°55.3 340 9 336 -999
2012-01-11 06:12:06 51°14.29 2°55.29 337 9.1 332 9.8
2012-01-11 06:12:11 51°14.301 2°55.281 333.2 9.1 330 -999
2012-01-11 06:12:16 51°14.312 2°55.27 331.1 9.2 329 10
2012-01-11 06:12:21 51°14.322 2°55.258 328.9 9.4 327 -999
2012-01-11 06:12:27 51°14.336 2°55.244 326.7 9.5 325 9.8
2012-01-11 06:12:31 51°14.344 2°55.234 325.1 9.6 324 9.6
2012-01-11 06:12:36 51°14.355 2°55.221 323.8 9.6 323 -999
2012-01-11 06:12:41 51°14.366 2°55.209 323.2 9.7 323 -999
2012-01-11 06:12:47 51°14.379 2°55.193 322.3 9.8 322 -999
2012-01-11 06:12:51 51°14.387 2°55.182 321 9.9 321 10
2012-01-11 06:12:56 51°14.398 2°55.168 320.3 9.9 320 -999
2012-01-11 06:13:01 51°14.408 2°55.153 319.6 10 319 9.7
2012-01-11 06:13:06 51°14.419 2°55.138 318.2 10.2 319 -999
2012-01-11 06:13:12 51°14.432 2°55.121 317.9 10.2 319 -999
2012-01-11 06:13:16 51°14.441 2°55.109 318.2 10.3 321 9.8
2012-01-11 06:13:21 51°14.452 2°55.095 319 10.5 321 10.1
2012-01-11 06:13:26 51°14.464 2°55.08 320.4 10.6 322 10.2
2012-01-11 06:13:31 51°14.475 2°55.065 321.4 10.8 320 10.2
2012-01-11 06:13:36 51°14.487 2°55.05 320.1 10.9 320 -999
2012-01-11 06:13:41 51°14.499 2°55.035 319.4 11 322 10.1
2012-01-11 06:13:46 51°14.511 2°55.02 320.2 10.9 323 10.4
2012-01-11 06:13:51 51°14.523 2°55.006 321.7 11.1 324 10.4
2012-01-11 06:13:56 51°14.536 2°54.991 323.9 11.2 323 10.7
2012-01-11 06:14:00 51°14.545 2°54.978 324.7 11.3 321 11
2012-01-11 06:14:05 51°14.557 2°54.962 323.2 11.4 319 11.2
2012-01-11 06:14:10 51°14.57 2°54.946 322.4 11.5 320 11.2
2012-01-11 06:14:15 51°14.582 2°54.93 323.1 11.5 322 11.2
2012-01-11 06:14:20 51°14.595 2°54.915 325 11.6 324 11.2
2012-01-11 06:14:24 51°14.606 2°54.903 327.2 11.6 325 11.1
2012-01-11 06:14:29 51°14.619 2°54.888 328.5 11.6 325 11.2
2012-01-11 06:14:34 51°14.633 2°54.875 330.5 11.7 328 11
2012-01-11 06:14:40 51°14.65 2°54.858 332.2 11.7 328 10.9
2012-01-11 06:14:44 51°14.661 2°54.848 332.7 11.7 329 10.9
2012-01-11 06:14:49 51°14.674 2°54.834 332.7 11.8 329 10.9
2012-01-11 06:14:54 51°14.689 2°54.822 334 11.7 332 10.9
2012-01-11 06:14:59 51°14.703 2°54.809 335.7 11.8 331 10.9
2012-01-11 06:15:04 51°14.718 2°54.796 335.3 11.9 330 10.7
2012-01-11 06:15:08 51°14.729 2°54.785 333.6 12 328 10.8
2012-01-11 06:15:13 51°14.743 2°54.772 333.1 12 331 10.7
2012-01-11 06:15:18 51°14.758 2°54.759 334 12 331 10.8
2012-01-11 06:15:23 51°14.772 2°54.746 334.3 12 331 10.9
2012-01-11 06:15:28 51°14.787 2°54.734 334.7 12.1 331 11
2012-01-11 06:15:33 51°14.802 2°54.72 334.2 12.1 330 11
2012-01-11 06:15:38 51°14.817 2°54.708 334 12.1 333 11
2012-01-11 06:15:43 51°14.832 2°54.694 334.9 12.2 331 11
2012-01-11 06:15:48 51°14.846 2°54.682 335.4 12.1 331 11
2012-01-11 06:15:52 51°14.858 2°54.67 333 12.2 327 11.1
2012-01-11 06:15:58 51°14.875 2°54.653 331 12.2 328 11.2
2012-01-11 06:16:03 51°14.889 2°54.637 329 12.2 324 11
2012-01-11 06:16:08 51°14.903 2°54.622 327.6 12.2 326 11.1
2012-01-11 06:16:12 51°14.914 2°54.609 327.1 12.2 325 11.1
2012-01-11 06:16:18 51°14.931 2°54.593 328.5 12.1 330 11
2012-01-11 06:16:23 51°14.946 2°54.58 331.1 12.1 331 10.9
2012-01-11 06:16:28 51°14.961 2°54.567 333.5 12 333 10.8
2012-01-11 06:16:32 51°14.973 2°54.558 335.8 12.1 334 10.8
2012-01-11 06:16:38 51°14.991 2°54.544 336.1 12.1 334 10.6
2012-01-11 06:16:43 51°15.006 2°54.533 336.6 12.1 336 10.3
2012-01-11 06:16:48 51°15.021 2°54.522 338.1 12.1 337 9.9
2012-01-11 06:16:52 51°15.034 2°54.515 340.3 12 338 9.8
2012-01-11 06:16:58 51°15.052 2°54.503 340.9 12 337 9.4
2012-01-11 06:17:03 51°15.067 2°54.492 340.7 12 337 9
2012-01-11 06:17:08 51°15.082 2°54.482 340.5 11.9 337 8.9
2012-01-11 06:17:12 51°15.094 2°54.473 339.8 11.9 337 9.2
2012-01-11 06:17:18 51°15.113 2°54.461 339.7 11.9 337 8.9
2012-01-11 06:17:23 51°15.128 2°54.45 339.6 11.9 336 8.8
2012-01-11 06:17:28 51°15.143 2°54.44 339.7 12 337 8.5
2012-01-11 06:17:32 51°15.156 2°54.431 339.6 12.1 334 8.4
2012-01-11 06:17:38 51°15.174 2°54.416 338.3 12.1 333 8.5
2012-01-11 06:17:43 51°15.189 2°54.404 337.1 12 332 8.6
2012-01-11 06:17:48 51°15.203 2°54.392 336.6 11.9 333 8.6
2012-01-11 06:17:52 51°15.215 2°54.383 336.8 12 333 8.6
2012-01-11 06:17:58 51°15.233 2°54.369 336.9 12 333 8.6
2012-01-11 06:18:03 51°15.248 2°54.356 336.8 12.1 333 8.7
2012-01-11 06:18:08 51°15.263 2°54.344 336.2 12.1 332 8.5
2012-01-11 06:18:12 51°15.275 2°54.333 335.4 12.1 332 8.4
2012-01-11 06:18:18 51°15.292 2°54.319 335.4 12.1 332 8.5
2012-01-11 06:18:23 51°15.307 2°54.306 335.4 12.1 332 8.6
2012-01-11 06:18:28 51°15.322 2°54.294 335.4 12.1 332 8.5
2012-01-11 06:18:33 51°15.336 2°54.281 335.7 12.1 332 8.5
2012-01-11 06:18:38 51°15.351 2°54.269 335.7 12.2 332 8.9
2012-01-11 06:18:43 51°15.366 2°54.256 335.7 12.1 332 8.8
2012-01-11 06:18:48 51°15.381 2°54.244 335.9 12.1 332 8.7
2012-01-11 06:18:52 51°15.393 2°54.233 335.6 12.2 331 8.9
2012-01-11 06:18:58 51°15.41 2°54.217 334.7 12.2 331 9
2012-01-11 06:19:03 51°15.425 2°54.203 334.2 12.2 330 9.1
2012-01-11 06:19:08 51°15.439 2°54.189 333.9 12.3 329 9.1
2012-01-11 06:19:12 51°15.451 2°54.177 332.7 12.3 328 9.1
2012-01-11 06:19:18 51°15.468 2°54.16 331.9 12.3 327 9
2012-01-11 06:19:23 51°15.483 2°54.145 331.7 12.4 327 9.5
2012-01-11 06:19:28 51°15.498 2°54.13 331 12.4 326 9.2
2012-01-11 06:19:33 51°15.512 2°54.115 330.7 12.4 327 9.3
2012-01-11 06:19:38 51°15.527 2°54.1 330.3 12.4 326 9.4
2012-01-11 06:19:43 51°15.541 2°54.085 330.4 12.3 327 9.5
2012-01-11 06:19:48 51°15.555 2°54.07 330.7 12.3 327 9.5
2012-01-11 06:19:52 51°15.567 2°54.059 331.8 12.3 329 9.5
2012-01-11 06:19:58 51°15.584 2°54.041 332.5 12.3 328 9.8
2012-01-11 06:20:03 51°15.598 2°54.027 333.2 12.3 330 9.6
2012-01-11 06:20:08 51°15.613 2°54.014 334 12.3 329 9.7
2012-01-11 06:20:12 51°15.625 2°54.003 334.7 12.4 330 9.7
2012-01-11 06:20:18 51°15.644 2°53.987 334.9 12.3 331 9.7
2012-01-11 06:20:23 51°15.659 2°53.974 335.1 12.4 331 9.8
2012-01-11 06:20:28 51°15.674 2°53.961 335.3 12.3 331 9.6
2012-01-11 06:20:32 51°15.686 2°53.951 335.9 12.3 331 9.8
2012-01-11 06:20:38 51°15.705 2°53.935 336 12.4 331 9.9
2012-01-11 06:20:43 51°15.718 2°53.921 335.8 12.4 330 10
2012-01-11 06:20:48 51°15.733 2°53.907 335.2 12.4 330 10
2012-01-11 06:20:52 51°15.744 2°53.895 334.7 12.4 329 10.1
2012-01-11 06:20:58 51°15.762 2°53.879 333.8 12.4 330 10.1
2012-01-11 06:21:03 51°15.777 2°53.865 333.5 12.4 329 10.2
2012-01-11 06:21:08 51°15.792 2°53.851 333.5 12.4 330 10
2012-01-11 06:21:13 51°15.807 2°53.837 333.4 12.4 328 10.2
2012-01-11 06:21:18 51°15.822 2°53.823 333.2 12.4 329 10.1
2012-01-11 06:21:23 51°15.836 2°53.808 333 12.4 329 10.2
2012-01-11 06:21:28 51°15.851 2°53.794 332.6 12.4 328 10.4
2012-01-11 06:21:32 51°15.862 2°53.782 332.1 12.4 327 10.1
2012-01-11 06:21:38 51°15.879 2°53.765 331.5 12.4 328 10.4
2012-01-11 06:21:43 51°15.894 2°53.75 331.4 12.4 327 10.2
2012-01-11 06:21:48 51°15.909 2°53.736 331.1 12.4 327 10.3
2012-01-11 06:21:52 51°15.92 2°53.724 330.9 12.3 328 10.3
2012-01-11 06:21:58 51°15.938 2°53.707 331.2 12.4 328 10.7
2012-01-11 06:22:03 51°15.953 2°53.692 331.5 12.4 327 10.4
2012-01-11 06:22:08 51°15.967 2°53.677 331.4 12.4 326 10.5
2012-01-11 06:22:12 51°15.978 2°53.665 330.8 12.4 327 10.5
2012-01-11 06:22:18 51°15.996 2°53.647 331.1 12.4 327 10.6
2012-01-11 06:22:23 51°16.009 2°53.631 330.6 12.3 326 10.5
2012-01-11 06:22:28 51°16.023 2°53.616 330.2 12.4 326 10.5
2012-01-11 06:22:33 51°16.037 2°53.6 329 12.4 325 10.5
2012-01-11 06:22:38 51°16.052 2°53.585 328.8 12.4 326 10.8
2012-01-11 06:22:43 51°16.066 2°53.569 329.2 12.4 326 10.7
2012-01-11 06:22:48 51°16.08 2°53.554 329.2 12.4 326 10.7
2012-01-11 06:22:52 51°16.091 2°53.541 329.3 12.4 326 11
2012-01-11 06:22:58 51°16.109 2°53.523 329.5 12.4 327 11
2012-01-11 06:23:03 51°16.123 2°53.509 330.1 12.4 328 10.8
2012-01-11 06:23:08 51°16.138 2°53.495 331.1 12.4 329 11
2012-01-11 06:23:12 51°16.15 2°53.484 332.3 12.4 330 11.2
2012-01-11 06:23:18 51°16.168 2°53.469 334.1 12.4 332 11.2
2012-01-11 06:23:23 51°16.184 2°53.456 335.3 12.3 332 10.9
2012-01-11 06:23:28 51°16.199 2°53.444 335.9 12.3 333 11.2
2012-01-11 06:23:32 51°16.211 2°53.434 336.4 12.3 333 11
2012-01-11 06:23:38 51°16.23 2°53.419 336.8 12.4 333 11.3
2012-01-11 06:23:43 51°16.245 2°53.407 336.6 12.3 333 11.3
2012-01-11 06:23:48 51°16.26 2°53.394 336.1 12.3 333 11.3
2012-01-11 06:23:52 51°16.272 2°53.384 336.1 12.3 333 11.3
2012-01-11 06:23:57 51°16.287 2°53.372 336 12.4 332 11.1
2012-01-11 06:24:03 51°16.305 2°53.356 335.2 12.4 332 11.3
2012-01-11 06:24:08 51°16.32 2°53.343 334.8 12.4 331 11.4
2012-01-11 06:24:12 51°16.332 2°53.332 334.1 12.3 331 11.5
2012-01-11 06:24:17 51°16.347 2°53.318 334 12.3 331 11.2
2012-01-11 06:24:22 51°16.362 2°53.305 334 12.4 331 11.4
2012-01-11 06:24:28 51°16.38 2°53.289 334.1 12.4 331 11.4
2012-01-11 06:24:32 51°16.392 2°53.279 334.1 12.3 331 11.4
2012-01-11 06:24:37 51°16.407 2°53.265 334 12.4 331 11.3
2012-01-11 06:24:42 51°16.422 2°53.252 334.1 12.4 331 11.4
2012-01-11 06:24:48 51°16.44 2°53.237 334.5 12.3 332 11.5
2012-01-11 06:24:52 51°16.452 2°53.227 334.7 12.4 331 11.2
2012-01-11 06:24:57 51°16.467 2°53.213 334.3 12.3 331 11.2
2012-01-11 06:25:02 51°16.482 2°53.2 334 12.4 330 11.4
2012-01-11 06:25:08 51°16.499 2°53.184 333.3 12.3 330 11.3
2012-01-11 06:25:12 51°16.511 2°53.172 332.8 12.3 329 11.2
2012-01-11 06:25:16 51°16.523 2°53.161 332.2 12.3 328 11.2
2012-01-11 06:25:22 51°16.54 2°53.144 331.5 12.3 328 11.3
2012-01-11 06:25:28 51°16.558 2°53.126 330.8 12.4 327 11.4
2012-01-11 06:25:32 51°16.569 2°53.114 330.1 12.4 327 11.3
2012-01-11 06:25:37 51°16.584 2°53.099 330 12.3 327 11.2
2012-01-11 06:25:42 51°16.598 2°53.084 329.8 12.4 326 11.1
2012-01-11 06:25:48 51°16.615 2°53.065 329.6 12.4 327 10.9
2012-01-11 06:25:52 51°16.627 2°53.053 329.6 12.4 327 10.8
2012-01-11 06:25:57 51°16.641 2°53.038 329.9 12.4 327 10.8
2012-01-11 06:26:02 51°16.656 2°53.024 330.3 12.4 327 10.7
2012-01-11 06:26:08 51°16.673 2°53.006 330.8 12.3 328 10.8
2012-01-11 06:26:12 51°16.685 2°52.995 331.6 12.3 329 10.6
2012-01-11 06:26:16 51°16.697 2°52.984 332 12.4 329 10.5
2012-01-11 06:26:22 51°16.714 2°52.967 332.5 12.4 329 10.3
2012-01-11 06:26:28 51°16.732 2°52.951 332.8 12.3 330 10.2
2012-01-11 06:26:32 51°16.744 2°52.94 333.2 12.3 330 10
2012-01-11 06:26:37 51°16.759 2°52.926 333.7 12.3 331 10
2012-01-11 06:26:42 51°16.774 2°52.913 333.9 12.3 331 9.4
2012-01-11 06:26:48 51°16.792 2°52.898 334.2 12.2 331 9.2
2012-01-11 06:26:52 51°16.803 2°52.887 334.2 12.2 331 8.9
2012-01-11 06:26:57 51°16.818 2°52.874 334.2 12.1 331 8.9
2012-01-11 06:27:03 51°16.836 2°52.859 334.3 12.1 331 8.7
2012-01-11 06:27:08 51°16.851 2°52.846 334.6 12.1 331 8.6
2012-01-11 06:27:12 51°16.863 2°52.835 334.6 12.1 331 8.5
2012-01-11 06:27:16 51°16.875 2°52.825 334.5 12.1 331 8.7
2012-01-11 06:27:22 51°16.892 2°52.809 334.3 12.1 331 8.5
2012-01-11 06:27:28 51°16.91 2°52.793 334.2 12.2 330 8.4
2012-01-11 06:27:32 51°16.921 2°52.782 333.7 12.3 330 8.7
2012-01-11 06:27:38 51°16.939 2°52.766 333.3 12.3 330 8.6
2012-01-11 06:27:42 51°16.951 2°52.755 333.1 12.3 330 8.8
2012-01-11 06:27:48 51°16.968 2°52.738 332.5 12.3 329 8.7
2012-01-11 06:27:52 51°16.98 2°52.727 332.3 12.3 329 9.1
2012-01-11 06:27:58 51°16.998 2°52.71 332.5 12.4 329 9.3
2012-01-11 06:28:03 51°17.013 2°52.697 332.6 12.4 330 9.3
2012-01-11 06:28:08 51°17.028 2°52.683 332.9 12.4 330 9.4
2012-01-11 06:28:12 51°17.039 2°52.672 333 12.4 330 9.3
2012-01-11 06:28:18 51°17.057 2°52.656 332.8 12.4 330 9.1
2012-01-11 06:28:23 51°17.072 2°52.642 333 12.3 330 8.9
2012-01-11 06:28:28 51°17.087 2°52.629 333.2 12.3 330 8.8
2012-01-11 06:28:32 51°17.099 2°52.618 333.3 12.3 330 8.8
2012-01-11 06:28:37 51°17.113 2°52.604 333.3 12.2 331 8.7
2012-01-11 06:28:43 51°17.131 2°52.59 334.6 12.2 334 8.9
2012-01-11 06:28:48 51°17.147 2°52.578 336.1 12.2 334 8.9
2012-01-11 06:28:52 51°17.159 2°52.569 337 12.3 335 9
2012-01-11 06:28:57 51°17.174 2°52.557 337.9 12.3 335 9
2012-01-11 06:29:02 51°17.19 2°52.546 338.1 12.2 335 9.2
2012-01-11 06:29:08 51°17.208 2°52.533 339 12.2 337 9.2
2012-01-11 06:29:12 51°17.221 2°52.525 340.5 12.3 338 9.3
2012-01-11 06:29:17 51°17.237 2°52.515 341.4 12.3 339 9.3
2012-01-11 06:29:23 51°17.256 2°52.504 342.1 12.3 340 9.3
2012-01-11 06:29:28 51°17.272 2°52.495 343.4 12.3 341 9.3
2012-01-11 06:29:32 51°17.285 2°52.488 344.1 12.3 342 9.4
2012-01-11 06:29:36 51°17.298 2°52.482 345.1 12.2 344 9.6
2012-01-11 06:29:42 51°17.317 2°52.473 346.6 12.3 345 9.6
2012-01-11 06:29:48 51°17.337 2°52.465 347.8 12.2 346 9.6
2012-01-11 06:29:52 51°17.351 2°52.461 349.2 12.2 347 9.5
2012-01-11 06:29:58 51°17.37 2°52.454 349.9 12.2 348 9.4
2012-01-11 06:30:02 51°17.383 2°52.449 350.9 12.2 349 9.5
2012-01-11 06:30:08 51°17.403 2°52.445 352.2 12.2 351 9.5
2012-01-11 06:30:12 51°17.417 2°52.441 353.7 12.1 352 9.6
2012-01-11 06:30:18 51°17.437 2°52.438 355.7 12.1 354 9.8
2012-01-11 06:30:23 51°17.454 2°52.436 356.8 12.1 355 9.6
2012-01-11 06:30:28 51°17.471 2°52.434 358.2 12.2 355 9.6
2012-01-11 06:30:32 51°17.484 2°52.432 358.5 12.1 356 9.5
2012-01-11 06:30:37 51°17.501 2°52.431 359.4 12.2 357 9.6
2012-01-11 06:30:43 51°17.521 2°52.429 0.4 12 358 9.6
2012-01-11 06:30:48 51°17.537 2°52.428 1.5 12.1 358 9.6
2012-01-11 06:30:52 51°17.551 2°52.428 1.6 12.1 359 9.6
2012-01-11 06:30:57 51°17.567 2°52.428 2.7 12.1 1 9.7
2012-01-11 06:31:02 51°17.584 2°52.429 3.9 12 2 9.6
2012-01-11 06:31:08 51°17.604 2°52.43 5.3 12.1 2 9.7
2012-01-11 06:31:12 51°17.618 2°52.431 5.6 12.1 3 9.5
2012-01-11 06:31:17 51°17.634 2°52.433 6.5 12.1 3 9.4
2012-01-11 06:31:22 51°17.651 2°52.434 6.1 12 3 9.5
2012-01-11 06:31:28 51°17.671 2°52.436 6.6 12 3 9.6
2012-01-11 06:31:32 51°17.684 2°52.436 6.2 12 2 9.7
2012-01-11 06:31:37 51°17.701 2°52.438 5.9 12 2 9.5
2012-01-11 06:31:43 51°17.721 2°52.439 5.4 12 1 9.6
2012-01-11 06:31:48 51°17.738 2°52.44 5.2 12 3 9.6
2012-01-11 06:31:52 51°17.751 2°52.441 5.3 12 2 9.6
2012-01-11 06:31:57 51°17.767 2°52.443 7.3 12 6 9.6
2012-01-11 06:32:03 51°17.787 2°52.447 8.6 12 6 9.5
2012-01-11 06:32:08 51°17.803 2°52.452 11 11.9 11 9.5
2012-01-11 06:32:12 51°17.817 2°52.455 12.8 12 10 9.6
2012-01-11 06:32:16 51°17.829 2°52.46 14.9 11.9 13 9.6
2012-01-11 06:32:22 51°17.849 2°52.466 15.5 12 12 9.6
2012-01-11 06:32:28 51°17.868 2°52.474 16.2 11.9 13 9.7
2012-01-11 06:32:32 51°17.881 2°52.478 15.9 11.9 12 9.8
2012-01-11 06:32:36 51°17.894 2°52.483 16.6 11.9 12 9.6
2012-01-11 06:32:42 51°17.913 2°52.49 16.1 11.9 14 9.6
2012-01-11 06:32:48 51°17.932 2°52.497 16.9 11.8 14 9.8
2012-01-11 06:32:52 51°17.945 2°52.503 18 11.8 15 9.7
2012-01-11 06:32:57 51°17.96 2°52.511 19.5 11.8 17 9.9
2012-01-11 06:33:03 51°17.979 2°52.52 20.1 11.9 18 10
2012-01-11 06:33:08 51°17.994 2°52.53 21.9 11.8 21 9.8
2012-01-11 06:33:12 51°18.006 2°52.537 24 11.8 21 9.9
2012-01-11 06:33:17 51°18.021 2°52.548 25.7 11.8 25 9.9
2012-01-11 06:33:22 51°18.036 2°52.56 27.5 11.8 27 9.9
2012-01-11 06:33:28 51°18.053 2°52.575 30.3 11.6 31 9.8
2012-01-11 06:33:32 51°18.063 2°52.587 33.5 11.6 32 9.8
2012-01-11 06:33:36 51°18.074 2°52.598 35.4 11.7 34 9.8
2012-01-11 06:33:42 51°18.09 2°52.616 37.5 11.7 37 9.8
2012-01-11 06:33:48 51°18.105 2°52.635 38.5 11.6 37 9.8
2012-01-11 06:33:52 51°18.114 2°52.648 40.5 11.5 40 9.9
2012-01-11 06:33:58 51°18.128 2°52.669 42.8 11.4 43 9.9
2012-01-11 06:34:02 51°18.137 2°52.684 46 11.4 48 9.9
2012-01-11 06:34:08 51°18.149 2°52.707 49.3 11.4 50 9.8
2012-01-11 06:34:12 51°18.157 2°52.724 53.2 11.4 55 10
2012-01-11 06:34:17 51°18.165 2°52.745 56.2 11.4 57 10
2012-01-11 06:34:23 51°18.176 2°52.77 57.5 11.4 58 9.9
2012-01-11 06:34:28 51°18.183 2°52.792 59.2 11.5 60 10
2012-01-11 06:34:32 51°18.19 2°52.81 60.4 11.5 60 10
2012-01-11 06:34:37 51°18.197 2°52.832 62.1 11.5 62 9.9
2012-01-11 06:34:43 51°18.206 2°52.859 62.5 11.4 62 9.9
2012-01-11 06:34:48 51°18.213 2°52.882 63.2 11.4 64 10.1
2012-01-11 06:34:52 51°18.218 2°52.9 63.7 11.4 63 10.2
2012-01-11 06:34:57 51°18.225 2°52.923 64 11.4 65 10.3
2012-01-11 06:35:03 51°18.235 2°52.949 63.8 11.4 61 10.2
2012-01-11 06:35:08 51°18.241 2°52.972 63.1 11.4 64 10.2
2012-01-11 06:35:12 51°18.248 2°52.989 63 11.3 61 10.1
2012-01-11 06:35:17 51°18.255 2°53.012 62.9 11.4 63 10.2
2012-01-11 06:35:23 51°18.264 2°53.038 62.5 11.4 60 10.1
2012-01-11 06:35:28 51°18.272 2°53.061 62.4 11.5 62 10.1
2012-01-11 06:35:32 51°18.278 2°53.078 62.4 11.4 61 10.2
2012-01-11 06:35:37 51°18.286 2°53.1 61.4 11.4 60 10.2
2012-01-11 06:35:42 51°18.294 2°53.122 61.3 11.5 60 10.2
2012-01-11 06:35:48 51°18.303 2°53.149 61.2 11.5 61 10.1
2012-01-11 06:35:52 51°18.31 2°53.166 60.7 11.4 59 10.1
2012-01-11 06:35:56 51°18.317 2°53.183 60.4 11.4 59 10.2
2012-01-11 06:36:02 51°18.327 2°53.209 59.7 11.3 58 10.1
2012-01-11 06:36:08 51°18.336 2°53.235 60 11.3 59 10.1
2012-01-11 06:36:12 51°18.343 2°53.252 59.9 11.3 59 10.2
2012-01-11 06:36:17 51°18.35 2°53.274 61.3 11.3 59 10.3
2012-01-11 06:36:22 51°18.359 2°53.295 60.5 11.4 59 10.2
2012-01-11 06:36:28 51°18.368 2°53.321 60.6 11.4 60 10.3
2012-01-11 06:36:32 51°18.375 2°53.339 60.7 11.4 60 10.1
2012-01-11 06:36:37 51°18.383 2°53.361 61 11.3 59 10.1
2012-01-11 06:36:42 51°18.39 2°53.382 60.5 11.3 60 10.2
2012-01-11 06:36:48 51°18.4 2°53.408 60.9 11.3 61 10.1
2012-01-11 06:36:52 51°18.406 2°53.425 61.4 11.3 59 10.2
2012-01-11 06:36:57 51°18.414 2°53.447 60.3 11.5 59 10.1
2012-01-11 06:37:02 51°18.422 2°53.469 60.6 11.5 58 10.2
2012-01-11 06:37:08 51°18.432 2°53.495 60.1 11.5 59 10.3
2012-01-11 06:37:12 51°18.439 2°53.512 59.4 11.4 59 10.3
2012-01-11 06:37:18 51°18.449 2°53.538 59.7 11.4 58 10.3
2012-01-11 06:37:22 51°18.456 2°53.554 58.9 11.4 59 10.1
2012-01-11 06:37:28 51°18.466 2°53.58 60.1 11.3 57 10.1
2012-01-11 06:37:32 51°18.473 2°53.597 58.6 11.4 58 10.3
2012-01-11 06:37:37 51°18.481 2°53.618 58.8 11.4 57 10.2
2012-01-11 06:37:43 51°18.491 2°53.644 59 11.4 58 10.3
2012-01-11 06:37:48 51°18.501 2°53.664 58.7 11.4 55 10.4
2012-01-11 06:37:52 51°18.507 2°53.681 57.6 11.4 57 10.3
2012-01-11 06:37:56 51°18.514 2°53.698 58 11.4 56 10.3
2012-01-11 06:38:02 51°18.525 2°53.724 58.2 11.4 58 10.3
2012-01-11 06:38:08 51°18.536 2°53.748 58.4 11.3 55 10.1
2012-01-11 06:38:12 51°18.542 2°53.765 58.1 11.3 57 10.4
2012-01-11 06:38:18 51°18.553 2°53.789 56.7 11.3 52 10.3
2012-01-11 06:38:22 51°18.561 2°53.805 55.3 11.3 53 10.4
2012-01-11 06:38:28 51°18.573 2°53.828 53.2 11.4 52 10.2
2012-01-11 06:38:32 51°18.58 2°53.845 53.9 11.3 52 10.2
2012-01-11 06:38:37 51°18.591 2°53.864 53.1 11.5 52 10.2
2012-01-11 06:38:42 51°18.6 2°53.884 54.2 11.5 53 10.2
2012-01-11 06:38:48 51°18.611 2°53.908 54.7 11.5 53 10.3
2012-01-11 06:38:52 51°18.619 2°53.924 55 11.5 53 10.1
2012-01-11 06:38:58 51°18.63 2°53.948 54.9 11.4 53 10.3
2012-01-11 06:39:03 51°18.64 2°53.969 54.7 11.4 54 10.4
2012-01-11 06:39:08 51°18.649 2°53.989 55.4 11.4 53 10.4
2012-01-11 06:39:12 51°18.656 2°54.005 55.5 11.3 54 10.3
2012-01-11 06:39:17 51°18.665 2°54.026 56.4 11.3 56 10.2
2012-01-11 06:39:23 51°18.675 2°54.051 58.5 11.4 59 10.3
2012-01-11 06:39:28 51°18.683 2°54.072 58.8 11.4 57 10.3
2012-01-11 06:39:32 51°18.69 2°54.09 59 11.4 58 10.2
2012-01-11 06:39:36 51°18.697 2°54.107 59.2 11.5 58 10.4
2012-01-11 06:39:42 51°18.707 2°54.132 59.6 11.4 57 10.4
2012-01-11 06:39:48 51°18.717 2°54.158 58.9 11.4 58 10.3
2012-01-11 06:39:52 51°18.724 2°54.175 59.6 11.5 57 10.2
2012-01-11 06:39:57 51°18.732 2°54.196 58.9 11.4 58 10.3
2012-01-11 06:40:02 51°18.741 2°54.218 59.1 11.4 57 10.4
2012-01-11 06:40:08 51°18.751 2°54.243 59 11.4 58 10.3
2012-01-11 06:40:12 51°18.757 2°54.261 60.1 11.3 58 10.2
2012-01-11 06:40:16 51°18.765 2°54.277 58.9 11.4 58 10.3
2012-01-11 06:40:22 51°18.774 2°54.303 59.4 11.4 58 10.3
2012-01-11 06:40:28 51°18.785 2°54.329 59.4 11.4 58 10.3
2012-01-11 06:40:32 51°18.792 2°54.345 59.6 11.3 56 10.4
2012-01-11 06:40:37 51°18.801 2°54.366 58.2 11.4 57 10.4
2012-01-11 06:40:42 51°18.809 2°54.387 58.5 11.3 55 10.5
2012-01-11 06:40:48 51°18.82 2°54.411 57.1 11.3 54 10.5
2012-01-11 06:40:52 51°18.828 2°54.427 56.3 11.3 54 10.4
2012-01-11 06:40:57 51°18.837 2°54.447 55.2 11.3 52 10.6
2012-01-11 06:41:03 51°18.849 2°54.471 54.5 11.3 52 10.5
2012-01-11 06:41:08 51°18.859 2°54.49 53.1 11.4 51 10.3
2012-01-11 06:41:12 51°18.867 2°54.507 54 11.4 53 10.4
2012-01-11 06:41:16 51°18.874 2°54.523 54.8 11.4 54 10.5
2012-01-11 06:41:22 51°18.885 2°54.547 55.4 11.3 52 10.4
2012-01-11 06:41:28 51°18.896 2°54.572 55 11.4 56 10.4
2012-01-11 06:41:32 51°18.904 2°54.588 56.5 11.4 55 10.6
2012-01-11 06:41:38 51°18.915 2°54.613 56.4 11.4 55 10.4
2012-01-11 06:41:43 51°18.924 2°54.633 56.8 11.4 54 10.3
2012-01-11 06:41:48 51°18.933 2°54.654 57.2 11.4 55 10.5
2012-01-11 06:41:52 51°18.941 2°54.671 56.7 11.3 54 10.4
2012-01-11 06:41:57 51°18.949 2°54.691 57.7 11.3 56 10.5
2012-01-11 06:42:03 51°18.96 2°54.716 56.9 11.4 56 10.5
2012-01-11 06:42:08 51°18.969 2°54.737 57.3 11.4 55 10.4
2012-01-11 06:42:12 51°18.976 2°54.754 57.4 11.4 56 10.5
2012-01-11 06:42:17 51°18.985 2°54.774 57.2 11.3 56 10.5
2012-01-11 06:42:23 51°18.996 2°54.8 57.8 11.5 56 10.6
2012-01-11 06:42:28 51°19.004 2°54.82 58.2 11.4 58 10.7
2012-01-11 06:42:32 51°19.01 2°54.837 59 11.3 58 10.7
2012-01-11 06:42:37 51°19.019 2°54.858 58.7 11.3 57 10.6
2012-01-11 06:42:42 51°19.027 2°54.879 58.8 11.4 59 10.6
2012-01-11 06:42:48 51°19.037 2°54.904 60.3 11.3 57 10.6
2012-01-11 06:42:52 51°19.044 2°54.921 59.5 11.3 58 10.5
2012-01-11 06:42:58 51°19.053 2°54.947 59.7 11.4 59 10.7
2012-01-11 06:43:02 51°19.061 2°54.964 59.8 11.3 57 10.6
2012-01-11 06:43:08 51°19.071 2°54.989 59 11.3 57 10.5
2012-01-11 06:43:12 51°19.077 2°55.006 58.5 11.3 57 10.5
2012-01-11 06:43:17 51°19.086 2°55.027 58.7 11.3 57 10.4
2012-01-11 06:43:22 51°19.095 2°55.047 59 11.3 57 10.4
2012-01-11 06:43:28 51°19.104 2°55.073 59.6 11.3 59 10.6
2012-01-11 06:43:32 51°19.111 2°55.09 59.7 11.2 57 10.6
2012-01-11 06:43:38 51°19.121 2°55.116 60.5 11.2 57 10.5
2012-01-11 06:43:43 51°19.13 2°55.137 59 11.3 57 10.5
2012-01-11 06:43:48 51°19.139 2°55.158 58.8 11.2 56 10.6
2012-01-11 06:43:52 51°19.146 2°55.173 57.7 11.3 53 10.5
2012-01-11 06:43:57 51°19.155 2°55.194 56.9 11.2 55 10.4
2012-01-11 06:44:03 51°19.167 2°55.218 55.5 11.3 53 10.6
2012-01-11 06:44:08 51°19.175 2°55.238 55.6 11.4 55 10.6
2012-01-11 06:44:12 51°19.183 2°55.253 56 11.3 51 10.7
2012-01-11 06:44:17 51°19.192 2°55.274 55.3 11.3 55 10.7
2012-01-11 06:44:22 51°19.202 2°55.293 55.5 11.3 52 10.6
2012-01-11 06:44:28 51°19.213 2°55.318 55.5 11.4 54 10.7
2012-01-11 06:44:32 51°19.221 2°55.333 55.5 11.3 53 10.6
2012-01-11 06:44:37 51°19.23 2°55.354 56.1 11.3 54 10.5
2012-01-11 06:44:43 51°19.241 2°55.377 55.7 11.3 52 10.4
2012-01-11 06:44:48 51°19.25 2°55.398 56.4 11.3 56 10.6
2012-01-11 06:44:52 51°19.257 2°55.415 56.8 11.3 54 10.7
2012-01-11 06:44:57 51°19.266 2°55.435 57.2 11.3 55 10.5
2012-01-11 06:45:02 51°19.275 2°55.456 57.3 11.3 56 10.5
2012-01-11 06:45:08 51°19.286 2°55.48 57.5 11.3 55 10.6
2012-01-11 06:45:12 51°19.293 2°55.496 57 11.3 54 10.7
2012-01-11 06:45:18 51°19.305 2°55.521 56.4 11.3 54 10.7
2012-01-11 06:45:22 51°19.312 2°55.537 55.6 11.4 55 10.7
2012-01-11 06:45:28 51°19.323 2°55.562 56.7 11.3 54 10.7
2012-01-11 06:45:32 51°19.33 2°55.578 56.3 11.3 55 10.7
2012-01-11 06:45:37 51°19.339 2°55.598 57.2 11.2 55 10.6
2012-01-11 06:45:43 51°19.35 2°55.623 57.7 11.2 56 10.7
2012-01-11 06:45:48 51°19.358 2°55.643 58.4 11.2 57 10.7
2012-01-11 06:45:52 51°19.365 2°55.66 59.1 11.2 57 10.7
2012-01-11 06:45:57 51°19.373 2°55.681 59.6 11.2 57 10.6
2012-01-11 06:46:03 51°19.383 2°55.706 59 11.3 58 10.7
2012-01-11 06:46:08 51°19.391 2°55.727 59.6 11.3 57 10.5
2012-01-11 06:46:12 51°19.398 2°55.744 59.8 11.3 58 10.5
2012-01-11 06:46:17 51°19.407 2°55.765 59.9 11.3 56 10.5
2012-01-11 06:46:23 51°19.417 2°55.79 58.7 11.3 56 10.7
2012-01-11 06:46:28 51°19.427 2°55.809 57.1 11.2 53 10.7
2012-01-11 06:46:32 51°19.434 2°55.825 55.8 11.2 53 10.7
2012-01-11 06:46:37 51°19.444 2°55.844 53.7 11.3 50 10.5
2012-01-11 06:46:43 51°19.455 2°55.868 54.1 11.3 53 10.5
2012-01-11 06:46:48 51°19.465 2°55.887 54.5 11.3 51 10.6
2012-01-11 06:46:52 51°19.473 2°55.904 54.5 11.3 54 10.5
2012-01-11 06:46:57 51°19.482 2°55.924 56 11.3 52 10.5
2012-01-11 06:47:02 51°19.491 2°55.944 56 11.4 55 10.6
2012-01-11 06:47:08 51°19.503 2°55.968 56.1 11.4 53 10.5
2012-01-11 06:47:12 51°19.51 2°55.985 56.7 11.3 55 10.5
2012-01-11 06:47:18 51°19.521 2°56.009 55.8 11.4 53 10.7
2012-01-11 06:47:22 51°19.528 2°56.025 56 11.3 54 10.7
2012-01-11 06:47:28 51°19.54 2°56.048 55.5 11.3 52 10.4
2012-01-11 06:47:32 51°19.547 2°56.065 55.5 11.3 52 10.7
2012-01-11 06:47:38 51°19.56 2°56.087 53.3 11.3 50 10.8
2012-01-11 06:47:43 51°19.569 2°56.107 53.8 11.2 52 10.6
2012-01-11 06:47:48 51°19.579 2°56.127 54.3 11.3 52 10.8
2012-01-11 06:47:52 51°19.587 2°56.142 54.5 11.3 52 10.6
2012-01-11 06:47:57 51°19.596 2°56.162 55.9 11.2 54 10.6
2012-01-11 06:48:03 51°19.606 2°56.187 56.9 11.3 56 10.6
2012-01-11 06:48:08 51°19.614 2°56.208 58.6 11.2 57 10.6
2012-01-11 06:48:12 51°19.621 2°56.225 59.5 11.2 57 10.7
2012-01-11 06:48:16 51°19.628 2°56.241 59.6 11.2 59 10.7
2012-01-11 06:48:22 51°19.638 2°56.267 60.5 11.2 57 10.5
2012-01-11 06:48:28 51°19.647 2°56.292 60.3 11.2 58 10.8
2012-01-11 06:48:32 51°19.654 2°56.309 60.2 11.1 58 10.7
2012-01-11 06:48:37 51°19.662 2°56.33 60.3 11.1 58 10.7
2012-01-11 06:48:43 51°19.672 2°56.355 60.6 11.1 59 10.6
2012-01-11 06:48:48 51°19.68 2°56.376 60.3 11.2 58 10.6
2012-01-11 06:48:52 51°19.687 2°56.392 60.3 11.2 57 10.8
2012-01-11 06:48:57 51°19.696 2°56.413 59.4 11.2 57 10.6
2012-01-11 06:49:03 51°19.707 2°56.438 58.8 11.3 54 10.6
2012-01-11 06:49:08 51°19.716 2°56.458 57.4 11.3 55 10.6
2012-01-11 06:49:12 51°19.723 2°56.475 57.2 11.3 54 10.6
2012-01-11 06:49:17 51°19.732 2°56.495 57.4 11.2 55 10.5
2012-01-11 06:49:22 51°19.741 2°56.516 58.2 11.3 57 10.7
2012-01-11 06:49:28 51°19.751 2°56.541 58.9 11.3 56 10.8
2012-01-11 06:49:32 51°19.758 2°56.557 58.7 11.2 56 10.8
2012-01-11 06:49:38 51°19.769 2°56.582 58.3 11.2 55 10.7
2012-01-11 06:49:42 51°19.776 2°56.598 58.2 11.3 55 10.8
2012-01-11 06:49:48 51°19.787 2°56.622 57.7 11.2 55 10.7
2012-01-11 06:49:52 51°19.794 2°56.639 57.6 11.2 55 10.8
2012-01-11 06:49:58 51°19.805 2°56.663 57.3 11.1 55 10.7
2012-01-11 06:50:03 51°19.813 2°56.684 58.2 11.2 55 10.6
2012-01-11 06:50:08 51°19.822 2°56.704 58.3 11.2 55 10.6
2012-01-11 06:50:12 51°19.829 2°56.72 58.2 11.1 55 10.7
2012-01-11 06:50:17 51°19.838 2°56.74 58 11.1 55 10.6
2012-01-11 06:50:23 51°19.85 2°56.764 57.8 11.2 53 10.8
2012-01-11 06:50:28 51°19.86 2°56.783 55.4 11.2 50 10.5
2012-01-11 06:50:32 51°19.867 2°56.798 54.2 11.2 50 10.6
2012-01-11 06:50:38 51°19.879 2°56.821 54.4 11.1 51 10.6
2012-01-11 06:50:43 51°19.889 2°56.84 53.8 11.2 51 10.6
2012-01-11 06:50:48 51°19.898 2°56.86 55 11.1 53 10.7
2012-01-11 06:50:52 51°19.906 2°56.876 55.8 11.1 53 10.8
2012-01-11 06:50:57 51°19.914 2°56.896 56.5 11.1 55 10.8
2012-01-11 06:51:03 51°19.925 2°56.92 58.4 11.1 56 10.8
2012-01-11 06:51:08 51°19.933 2°56.941 58.8 11.1 55 10.6
2012-01-11 06:51:12 51°19.94 2°56.957 59.2 11.1 58 10.6
2012-01-11 06:51:17 51°19.948 2°56.978 60.2 11.1 56 10.6
2012-01-11 06:51:22 51°19.957 2°56.999 59.1 11.2 57 10.6
2012-01-11 06:51:28 51°19.967 2°57.024 59.1 11.2 54 10.8
2012-01-11 06:51:32 51°19.975 2°57.039 57.3 11.1 53 10.7
2012-01-11 06:51:37 51°19.984 2°57.059 57 11.1 53 10.8
2012-01-11 06:51:42 51°19.993 2°57.078 55.8 11.1 52 10.7
2012-01-11 06:51:48 51°20.004 2°57.102 55.4 11.2 53 10.7
2012-01-11 06:51:52 51°20.012 2°57.117 54.9 11.2 51 10.8
2012-01-11 06:51:58 51°20.023 2°57.141 54.5 11.1 53 10.7
2012-01-11 06:52:02 51°20.031 2°57.156 55.4 11.2 51 10.7
2012-01-11 06:52:08 51°20.042 2°57.18 55 11.1 53 10.7
2012-01-11 06:52:12 51°20.05 2°57.195 55.3 11.1 51 10.8
2012-01-11 06:52:18 51°20.061 2°57.219 54.9 11.1 53 10.7
2012-01-11 06:52:23 51°20.071 2°57.238 55.2 11.2 52 10.8
2012-01-11 06:52:28 51°20.08 2°57.258 55.9 11.1 55 10.5
2012-01-11 06:52:32 51°20.087 2°57.274 57 11.2 54 10.5
2012-01-11 06:52:37 51°20.095 2°57.295 58.3 11.1 56 10.4
2012-01-11 06:52:43 51°20.106 2°57.318 58.4 11.1 53 10.5
2012-01-11 06:52:48 51°20.115 2°57.339 57.3 11.1 56 10.7
2012-01-11 06:52:52 51°20.122 2°57.355 57.8 11.1 54 10.6
2012-01-11 06:52:57 51°20.13 2°57.375 58 11.1 57 10.6
2012-01-11 06:53:03 51°20.141 2°57.4 58.6 11.1 56 10.7
2012-01-11 06:53:08 51°20.148 2°57.421 59.8 11.1 58 10.7
2012-01-11 06:53:12 51°20.156 2°57.437 59.6 11 55 10.7
2012-01-11 06:53:17 51°20.164 2°57.457 58.7 11.1 56 10.5
2012-01-11 06:53:22 51°20.173 2°57.477 58.8 11.1 55 10.6
2012-01-11 06:53:28 51°20.183 2°57.502 58.7 11 56 10.8
2012-01-11 06:53:32 51°20.19 2°57.517 58.4 11 54 10.8
2012-01-11 06:53:37 51°20.199 2°57.537 58 10.9 56 10.7
2012-01-11 06:53:42 51°20.207 2°57.558 58.3 11 56 10.6
2012-01-11 06:53:48 51°20.217 2°57.582 58.9 10.9 57 10.7
2012-01-11 06:53:52 51°20.223 2°57.598 59.4 10.9 58 10.7
2012-01-11 06:53:58 51°20.233 2°57.622 59.9 10.9 57 10.8
2012-01-11 06:54:02 51°20.24 2°57.639 59.6 10.9 57 10.9
2012-01-11 06:54:08 51°20.25 2°57.662 59.3 10.9 54 10.8
2012-01-11 06:54:12 51°20.257 2°57.678 57.8 10.9 54 10.5
2012-01-11 06:54:18 51°20.268 2°57.701 57.5 11 53 10.6
2012-01-11 06:54:23 51°20.277 2°57.721 56.4 10.9 54 10.6
2012-01-11 06:54:28 51°20.286 2°57.74 56 10.9 53 10.7
2012-01-11 06:54:32 51°20.294 2°57.755 54.9 11 50 10.7
2012-01-11 06:54:37 51°20.303 2°57.775 55.3 11 53 10.6
2012-01-11 06:54:43 51°20.315 2°57.797 55.4 11.1 49 10.6
2012-01-11 06:54:48 51°20.324 2°57.816 54.4 11.1 51 10.6
2012-01-11 06:54:52 51°20.332 2°57.831 53.8 11.1 50 10.5
2012-01-11 06:54:58 51°20.344 2°57.855 54.5 11.1 51 10.6
2012-01-11 06:55:02 51°20.352 2°57.87 54.5 11.2 52 10.6
2012-01-11 06:55:08 51°20.363 2°57.894 55.7 11.1 52 10.6
2012-01-11 06:55:12 51°20.37 2°57.909 55.2 11.2 52 10.5
2012-01-11 06:55:18 51°20.381 2°57.934 56.5 11.1 53 10.8
2012-01-11 06:55:23 51°20.391 2°57.953 55.9 11.1 53 10.8
2012-01-11 06:55:28 51°20.399 2°57.973 56.8 11 54 10.7
2012-01-11 06:55:32 51°20.407 2°57.989 57.2 11.1 52 10.7
2012-01-11 06:55:37 51°20.415 2°58.009 57.1 11.1 54 10.6
2012-01-11 06:55:43 51°20.427 2°58.032 57.1 11.2 53 10.7
2012-01-11 06:55:48 51°20.436 2°58.052 57 11.1 54 10.6
2012-01-11 06:55:52 51°20.443 2°58.068 57.3 11.1 54 10.7
2012-01-11 06:55:58 51°20.454 2°58.091 57.9 11.1 53 10.6
2012-01-11 06:56:02 51°20.461 2°58.108 57 11.2 55 10.5
2012-01-11 06:56:08 51°20.472 2°58.131 57.6 11.2 53 10.5
2012-01-11 06:56:12 51°20.479 2°58.148 57.1 11.2 55 10.5
2012-01-11 06:56:18 51°20.49 2°58.172 57.2 11.2 54 10.6
2012-01-11 06:56:23 51°20.499 2°58.192 57.3 11.2 55 10.7
2012-01-11 06:56:28 51°20.509 2°58.212 57.3 11.2 53 10.7
2012-01-11 06:56:32 51°20.516 2°58.228 57.3 11.2 55 10.8
2012-01-11 06:56:37 51°20.525 2°58.248 57.4 11.1 54 10.6
2012-01-11 06:56:42 51°20.534 2°58.269 58 11.1 55 10.6
2012-01-11 06:56:48 51°20.544 2°58.293 58.4 11.2 56 10.6
2012-01-11 06:56:52 51°20.551 2°58.31 59.1 11.1 57 10.6
2012-01-11 06:56:58 51°20.561 2°58.334 60.1 11.1 56 10.6
2012-01-11 06:57:02 51°20.568 2°58.351 59.6 11.1 57 10.6
2012-01-11 06:57:08 51°20.578 2°58.375 59.6 11.1 56 10.6
2012-01-11 06:57:12 51°20.585 2°58.391 59.4 11.1 54 10.5
2012-01-11 06:57:18 51°20.596 2°58.415 57.4 11.1 53 10.5
2012-01-11 06:57:23 51°20.606 2°58.434 56.6 11.1 53 10.5
2012-01-11 06:57:28 51°20.615 2°58.454 56.2 11.2 53 10.6
2012-01-11 06:57:32 51°20.623 2°58.469 56 11.1 53 10.6
2012-01-11 06:57:38 51°20.634 2°58.493 56.6 11.2 54 10.6
2012-01-11 06:57:43 51°20.643 2°58.513 56.5 11.1 53 10.6
2012-01-11 06:57:48 51°20.652 2°58.533 56.7 11.1 54 10.8
2012-01-11 06:57:52 51°20.659 2°58.548 56.8 11.2 53 10.6
2012-01-11 06:57:58 51°20.67 2°58.572 56.5 11.1 54 10.6
2012-01-11 06:58:03 51°20.68 2°58.592 56.6 11.1 52 10.6
2012-01-11 06:58:08 51°20.689 2°58.611 56.6 11 55 10.8
2012-01-11 06:58:12 51°20.696 2°58.627 57.1 11.2 54 10.6
2012-01-11 06:58:17 51°20.705 2°58.647 58.2 11 55 10.6
2012-01-11 06:58:23 51°20.715 2°58.671 59 11 56 10.4
2012-01-11 06:58:28 51°20.724 2°58.692 58.8 11.1 55 10.5
2012-01-11 06:58:32 51°20.73 2°58.708 58.8 11 57 10.5
2012-01-11 06:58:37 51°20.739 2°58.728 58.2 11.1 55 10.5
2012-01-11 06:58:43 51°20.75 2°58.752 58.2 11.1 55 10.6
2012-01-11 06:58:48 51°20.759 2°58.772 58.3 11 54 10.5
2012-01-11 06:58:52 51°20.766 2°58.788 57.5 11 53 10.4
2012-01-11 06:58:58 51°20.777 2°58.811 56.2 11.1 53 10.5
2012-01-11 06:59:02 51°20.784 2°58.827 56.4 11.1 53 10.6
2012-01-11 06:59:08 51°20.795 2°58.851 56.2 11 54 10.5
2012-01-11 06:59:12 51°20.803 2°58.866 56.3 11.1 53 10.5
2012-01-11 06:59:18 51°20.814 2°58.889 56.5 11 53 10.5
2012-01-11 06:59:23 51°20.823 2°58.909 56.4 11 55 10.4
2012-01-11 06:59:28 51°20.832 2°58.928 57.4 11.1 52 10.5
2012-01-11 06:59:32 51°20.839 2°58.944 56.9 11.1 54 10.5
2012-01-11 06:59:37 51°20.849 2°58.964 57.2 11 52 10.4
2012-01-11 06:59:42 51°20.858 2°58.984 57 11 55 10.5
2012-01-11 06:59:48 51°20.869 2°59.007 57.3 11 52 10.4
2012-01-11 06:59:52 51°20.876 2°59.022 56.4 11.1 52 10.4
2012-01-11 06:59:58 51°20.888 2°59.046 55 11.1 52 10.4
2012-01-11 07:00:03 51°20.897 2°59.065 55.4 11.1 51 10.5
2012-01-11 07:00:08 51°20.906 2°59.085 55.5 11.1 54 10.6
2012-01-11 07:00:12 51°20.914 2°59.1 56.1 11.1 52 10.4
2012-01-11 07:00:17 51°20.923 2°59.12 56.1 11.1 53 10.5
2012-01-11 07:00:22 51°20.933 2°59.139 56 11.1 50 10.5
2012-01-11 07:00:28 51°20.944 2°59.162 55.4 11.1 54 10.4
2012-01-11 07:00:32 51°20.951 2°59.178 56.6 11.1 53 10.4
2012-01-11 07:00:37 51°20.961 2°59.198 56.7 11.2 56 10.4
2012-01-11 07:00:42 51°20.969 2°59.218 58 11.1 53 10.4
2012-01-11 07:00:48 51°20.98 2°59.242 57.8 11.1 54 10.4
2012-01-11 07:00:52 51°20.988 2°59.258 57.6 11.1 53 10.5
2012-01-11 07:00:58 51°20.999 2°59.282 57.3 11.1 54 10.4
2012-01-11 07:01:02 51°21.006 2°59.298 57.2 11.1 54 10.6
2012-01-11 07:01:08 51°21.016 2°59.322 57.5 11.1 56 10.7
2012-01-11 07:01:12 51°21.024 2°59.337 58.1 11 54 10.5
2012-01-11 07:01:18 51°21.034 2°59.362 58.7 11 56 10.4
2012-01-11 07:01:23 51°21.042 2°59.382 59 11 56 10.5
2012-01-11 07:01:28 51°21.051 2°59.403 59.8 11 56 10.3
2012-01-11 07:01:32 51°21.058 2°59.419 59.8 11.1 57 10.7
2012-01-11 07:01:37 51°21.066 2°59.439 59.5 11 57 10.5
2012-01-11 07:01:43 51°21.077 2°59.463 60 11 55 10.3
2012-01-11 07:01:48 51°21.085 2°59.484 59.4 11.1 56 10.3
2012-01-11 07:01:52 51°21.093 2°59.5 59 11.1 54 10.3
2012-01-11 07:01:58 51°21.103 2°59.524 59.5 11.1 55 10.3
2012-01-11 07:02:03 51°21.112 2°59.544 58.6 11.1 55 10.3
2012-01-11 07:02:08 51°21.121 2°59.565 58.8 11.1 55 10.5
2012-01-11 07:02:12 51°21.128 2°59.581 58.8 11.1 56 10.3
2012-01-11 07:02:17 51°21.136 2°59.601 58.9 11.1 54 10.3
2012-01-11 07:02:23 51°21.147 2°59.625 58.2 11.1 54 10.4
2012-01-11 07:02:28 51°21.157 2°59.644 57.1 11.1 53 10.3
2012-01-11 07:02:32 51°21.164 2°59.66 57.2 11 53 10.5
2012-01-11 07:02:37 51°21.174 2°59.679 56 11.1 54 10.4
2012-01-11 07:02:42 51°21.183 2°59.698 56.7 11.1 52 10.4
2012-01-11 07:02:48 51°21.194 2°59.722 56 11.1 53 10.4
2012-01-11 07:02:52 51°21.202 2°59.737 55.8 11.1 51 10.3
2012-01-11 07:02:58 51°21.214 2°59.76 55.7 11.1 52 10.4
2012-01-11 07:03:02 51°21.222 2°59.775 54.8 11.1 49 10.4
2012-01-11 07:03:08 51°21.233 2°59.798 54.2 11.1 51 10.4
2012-01-11 07:03:12 51°21.242 2°59.813 53.8 11.2 49 10.4
2012-01-11 07:03:18 51°21.254 2°59.836 53.4 11.1 50 10.3
2012-01-11 07:03:23 51°21.263 2°59.855 54.5 11.2 53 10.4
2012-01-11 07:03:28 51°21.273 2°59.875 55.8 11.2 52 10.4
2012-01-11 07:03:32 51°21.28 2°59.891 56.2 11.1 55 10.6
2012-01-11 07:03:37 51°21.289 2°59.91 57.6 11.1 53 10.5
2012-01-11 07:03:43 51°21.3 2°59.935 57.9 11.1 56 10.4
2012-01-11 07:03:48 51°21.309 2°59.955 58.4 11.1 54 10.6
2012-01-11 07:03:52 51°21.315 2°59.971 58.5 11.1 56 10.6
2012-01-11 07:03:58 51°21.325 2°59.996 59 11.1 57 10.2
2012-01-11 07:04:02 51°21.332 3°0.012 60.3 11.1 56 10.5
2012-01-11 07:04:08 51°21.343 3°0.037 59.1 11.1 56 10.3
2012-01-11 07:04:12 51°21.349 3°0.053 59.4 11 57 10.4
2012-01-11 07:04:17 51°21.359 3°0.073 58.2 11.1 56 10.7
2012-01-11 07:04:23 51°21.369 3°0.098 58.7 11.1 57 10.5
2012-01-11 07:04:28 51°21.377 3°0.118 59.3 11 57 10.4
2012-01-11 07:04:32 51°21.384 3°0.134 59.3 11 55 10.5
2012-01-11 07:04:37 51°21.393 3°0.155 59.1 11.1 57 10.5
2012-01-11 07:04:43 51°21.403 3°0.179 59.1 11.1 55 10.4
2012-01-11 07:04:48 51°21.412 3°0.199 59 11.1 56 10.3
2012-01-11 07:04:52 51°21.418 3°0.215 58.9 11.1 56 10.3
2012-01-11 07:04:58 51°21.429 3°0.24 58.7 11.1 54 10.2
2012-01-11 07:05:02 51°21.436 3°0.256 58.2 11 56 10.3
2012-01-11 07:05:08 51°21.447 3°0.279 58 11.1 55 10.4
2012-01-11 07:05:12 51°21.454 3°0.296 58.1 11.1 55 10.4
2012-01-11 07:05:18 51°21.465 3°0.319 57 11.1 53 10.6
2012-01-11 07:05:23 51°21.475 3°0.338 56.5 11.1 51 10.3
2012-01-11 07:05:28 51°21.484 3°0.358 55.6 11.1 52 10.3
2012-01-11 07:05:32 51°21.491 3°0.373 55.2 11.1 53 10.4
2012-01-11 07:05:37 51°21.501 3°0.393 55.1 11.1 53 10.4
2012-01-11 07:05:43 51°21.512 3°0.416 56.2 11.1 51 10.3
2012-01-11 07:05:48 51°21.521 3°0.436 55.1 11.1 53 10.2
2012-01-11 07:05:52 51°21.528 3°0.452 56.1 11.1 54 10.4
2012-01-11 07:05:58 51°21.54 3°0.475 56.6 11.1 54 10.4
2012-01-11 07:06:02 51°21.546 3°0.492 58.2 11.1 58 10.5
2012-01-11 07:06:08 51°21.556 3°0.517 59.6 11.1 57 10.4
2012-01-11 07:06:12 51°21.563 3°0.533 60.2 11.1 59 10.4
2012-01-11 07:06:17 51°21.571 3°0.554 61 11.1 58 10.5
2012-01-11 07:06:22 51°21.579 3°0.575 60.9 11.1 60 10.5
2012-01-11 07:06:28 51°21.588 3°0.601 62 11.1 59 10.4
2012-01-11 07:06:32 51°21.594 3°0.618 62.5 11.1 60 10.4
2012-01-11 07:06:38 51°21.603 3°0.643 63.2 11.1 60 10.3
2012-01-11 07:06:43 51°21.611 3°0.665 63.4 11.1 61 10.4
2012-01-11 07:06:48 51°21.618 3°0.686 63.5 11 61 10.4
2012-01-11 07:06:52 51°21.624 3°0.703 63.3 11 61 10.4
2012-01-11 07:06:56 51°21.63 3°0.72 63.4 11 60 10.4
2012-01-11 07:07:02 51°21.639 3°0.745 63.2 10.9 61 10.4
2012-01-11 07:07:08 51°21.648 3°0.77 63.2 10.9 60 10.4
2012-01-11 07:07:12 51°21.654 3°0.787 62.9 10.9 61 10.4
2012-01-11 07:07:18 51°21.663 3°0.812 62.5 10.9 59 10.3
2012-01-11 07:07:22 51°21.669 3°0.829 62.2 10.9 60 10.3
2012-01-11 07:07:28 51°21.679 3°0.854 62.1 10.9 59 10.4
2012-01-11 07:07:32 51°21.685 3°0.87 62 10.9 59 10.3
2012-01-11 07:07:38 51°21.695 3°0.895 61.5 10.9 58 10.4
2012-01-11 07:07:43 51°21.703 3°0.915 61.5 10.9 57 10.5
2012-01-11 07:07:48 51°21.711 3°0.936 60.6 10.9 56 10.2
2012-01-11 07:07:52 51°21.718 3°0.952 60.1 10.9 57 10.4
2012-01-11 07:07:57 51°21.726 3°0.971 59.3 10.9 54 10.5
2012-01-11 07:08:03 51°21.736 3°0.996 58.9 11 58 10.5
2012-01-11 07:08:08 51°21.745 3°1.015 59.6 10.9 54 10.5
2012-01-11 07:08:12 51°21.752 3°1.031 58.9 10.8 57 10.4
2012-01-11 07:08:18 51°21.763 3°1.054 58.9 10.9 53 10.4
2012-01-11 07:08:22 51°21.769 3°1.071 58.8 10.9 56 10.4
2012-01-11 07:08:28 51°21.78 3°1.094 58.7 10.9 54 10.3
2012-01-11 07:08:32 51°21.787 3°1.11 58.7 10.8 55 10.5
2012-01-11 07:08:38 51°21.797 3°1.133 58.7 10.8 55 10.4
2012-01-11 07:08:43 51°21.806 3°1.153 58.7 10.8 54 10.3
2012-01-11 07:08:48 51°21.814 3°1.172 58.8 10.7 56 10.4
2012-01-11 07:08:52 51°21.821 3°1.188 58.9 10.8 55 10.5
2012-01-11 07:08:57 51°21.83 3°1.208 59.6 10.8 56 10.5
2012-01-11 07:09:03 51°21.84 3°1.231 59.3 10.8 55 10.3
2012-01-11 07:09:08 51°21.848 3°1.251 59.3 10.8 55 10.4
2012-01-11 07:09:12 51°21.855 3°1.267 59.5 10.8 56 10.4
2012-01-11 07:09:18 51°21.865 3°1.291 59.8 10.8 56 10.4
2012-01-11 07:09:22 51°21.871 3°1.307 60.3 10.8 58 10.5
2012-01-11 07:09:28 51°21.881 3°1.332 61.2 10.9 59 10.4
2012-01-11 07:09:32 51°21.887 3°1.348 63 10.8 59 10.4
2012-01-11 07:09:37 51°21.894 3°1.369 62.6 10.9 60 10.5
2012-01-11 07:09:42 51°21.902 3°1.39 63.5 11 60 10.5
2012-01-11 07:09:48 51°21.911 3°1.415 63.9 10.9 60 10.3
2012-01-11 07:09:52 51°21.917 3°1.432 63.5 10.8 60 10.2
2012-01-11 07:09:58 51°21.926 3°1.457 63.6 10.9 60 10.4
2012-01-11 07:10:03 51°21.934 3°1.478 63.3 10.9 61 10.6
2012-01-11 07:10:08 51°21.941 3°1.499 63.7 10.8 61 10.5
2012-01-11 07:10:12 51°21.947 3°1.515 64.1 10.8 61 10.6
2012-01-11 07:10:17 51°21.955 3°1.536 63 10.9 60 10.5
2012-01-11 07:10:23 51°21.964 3°1.561 63.7 10.8 58 10.4
2012-01-11 07:10:28 51°21.972 3°1.581 62.3 10.9 58 10.5
2012-01-11 07:10:32 51°21.979 3°1.597 61.4 10.9 56 10.4
2012-01-11 07:10:38 51°21.989 3°1.621 60.2 10.9 55 10.3
2012-01-11 07:10:42 51°21.996 3°1.637 59.5 10.8 55 10.3
2012-01-11 07:10:48 51°22.006 3°1.66 59.4 10.8 55 10.3
2012-01-11 07:10:52 51°22.013 3°1.676 59 10.9 55 10.6
2012-01-11 07:10:57 51°22.021 3°1.696 59 10.9 56 10.7
2012-01-11 07:11:03 51°22.032 3°1.72 59.7 10.9 56 10.6
2012-01-11 07:11:08 51°22.04 3°1.74 59.9 10.8 58 10.6
2012-01-11 07:11:12 51°22.047 3°1.756 60.5 10.9 55 10.3
2012-01-11 07:11:18 51°22.057 3°1.779 59.8 10.8 56 10.5
2012-01-11 07:11:23 51°22.066 3°1.799 59.2 10.9 54 10.8
2012-01-11 07:11:28 51°22.075 3°1.818 58.2 10.9 52 10.3
2012-01-11 07:11:32 51°22.082 3°1.834 57.6 10.8 55 10.3
2012-01-11 07:11:37 51°22.091 3°1.853 57.5 10.9 52 10.3
2012-01-11 07:11:42 51°22.1 3°1.872 57.4 10.9 55 10.3
2012-01-11 07:11:48 51°22.111 3°1.895 57.4 11 52 10.2
2012-01-11 07:11:52 51°22.117 3°1.911 58.1 10.8 56 10.6
2012-01-11 07:11:58 51°22.128 3°1.934 58 10.9 52 10.3
2012-01-11 07:12:02 51°22.135 3°1.95 57.7 10.8 56 10.3
2012-01-11 07:12:08 51°22.146 3°1.974 58.2 10.9 53 10.3
2012-01-11 07:12:12 51°22.152 3°1.99 58.2 10.9 56 10.2
2012-01-11 07:12:17 51°22.161 3°2.009 58.2 10.9 55 10
2012-01-11 07:12:22 51°22.169 3°2.03 59.4 10.8 57 10.3
2012-01-11 07:12:28 51°22.179 3°2.054 60 10.9 59 10.2
2012-01-11 07:12:32 51°22.185 3°2.071 61.8 10.9 60 10.2
2012-01-11 07:12:38 51°22.193 3°2.096 63 10.9 64 10.4
2012-01-11 07:12:43 51°22.201 3°2.117 65 10.8 59 10.1
2012-01-11 07:12:48 51°22.208 3°2.138 64 10.8 62 10.1
2012-01-11 07:12:52 51°22.214 3°2.154 63.3 10.8 58 10.2
2012-01-11 07:12:57 51°22.221 3°2.175 62.5 10.9 59 10.3
2012-01-11 07:13:03 51°22.231 3°2.199 61.4 10.9 57 10.4
2012-01-11 07:13:08 51°22.239 3°2.22 60.7 10.8 58 10.6
2012-01-11 07:13:12 51°22.246 3°2.235 59.1 10.9 55 10.4
2012-01-11 07:13:18 51°22.256 3°2.26 59.9 10.9 58 10.3
2012-01-11 07:13:23 51°22.264 3°2.28 60.3 10.8 58 10.2
2012-01-11 07:13:28 51°22.272 3°2.301 60.9 10.8 59 10.3
2012-01-11 07:13:32 51°22.278 3°2.317 61.2 10.8 57 10.4
2012-01-11 07:13:37 51°22.286 3°2.337 60.7 10.9 58 10.6
2012-01-11 07:13:43 51°22.296 3°2.361 60.3 10.9 56 10.4
2012-01-11 07:13:48 51°22.305 3°2.381 60 10.9 56 10.5
2012-01-11 07:13:52 51°22.312 3°2.397 58.4 10.9 53 10.3
2012-01-11 07:13:57 51°22.32 3°2.417 58.9 11 57 10.1
2012-01-11 07:14:02 51°22.329 3°2.437 59.3 11 55 10.3
2012-01-11 07:14:08 51°22.338 3°2.462 59.7 11 59 10.3
2012-01-11 07:14:12 51°22.344 3°2.479 61.4 11 57 10.3
2012-01-11 07:14:18 51°22.353 3°2.505 62.6 11 63 10.3
2012-01-11 07:14:22 51°22.359 3°2.521 63.2 10.9 59 10.3
2012-01-11 07:14:28 51°22.367 3°2.547 64.7 11 65 10.5
2012-01-11 07:14:32 51°22.374 3°2.564 64.7 11.1 60 10.6
2012-01-11 07:14:37 51°22.38 3°2.586 64.1 10.9 64 10.2
2012-01-11 07:14:42 51°22.388 3°2.607 65.4 11 61 10.3
2012-01-11 07:14:48 51°22.396 3°2.633 64.5 10.9 64 10.1
2012-01-11 07:14:52 51°22.402 3°2.65 65.1 10.9 62 10
2012-01-11 07:14:58 51°22.41 3°2.676 65.8 10.9 63 9.9
2012-01-11 07:15:03 51°22.417 3°2.697 65.1 10.9 62 9.9
2012-01-11 07:15:08 51°22.424 3°2.719 65 10.9 61 10.1
2012-01-11 07:15:12 51°22.429 3°2.736 64.1 10.9 62 10.3
2012-01-11 07:15:17 51°22.437 3°2.757 64 11 60 10.4
2012-01-11 07:15:23 51°22.446 3°2.783 64 11.1 60 10.3
2012-01-11 07:15:28 51°22.454 3°2.804 63.4 11.1 61 10.2
2012-01-11 07:15:32 51°22.46 3°2.821 62.8 11 58 10.2
2012-01-11 07:15:38 51°22.47 3°2.845 60.4 11 58 10.2
2012-01-11 07:15:43 51°22.479 3°2.865 59.7 11.1 55 10.2
2012-01-11 07:15:48 51°22.488 3°2.886 58.9 11.1 56 9.9
2012-01-11 07:15:52 51°22.495 3°2.901 58.3 11 53 9.8
2012-01-11 07:15:57 51°22.504 3°2.921 57.2 11 55 9.5
2012-01-11 07:16:03 51°22.515 3°2.945 57.6 11 54 9.6
2012-01-11 07:16:08 51°22.523 3°2.965 57.8 11 56 9.8
2012-01-11 07:16:12 51°22.53 3°2.981 58.9 11 55 10
2012-01-11 07:16:17 51°22.539 3°3 58.4 11 54 10.3
2012-01-11 07:16:23 51°22.55 3°3.024 57.4 11.1 54 10.6
2012-01-11 07:16:28 51°22.56 3°3.043 56.2 11.2 51 10.8
2012-01-11 07:16:32 51°22.567 3°3.06 55.9 11.2 54 10.8
2012-01-11 07:16:37 51°22.577 3°3.079 55.3 11.2 51 10.6
2012-01-11 07:16:43 51°22.589 3°3.102 55.1 11.2 52 10.8
2012-01-11 07:16:48 51°22.599 3°3.121 54.7 11.2 51 10.6
2012-01-11 07:16:52 51°22.606 3°3.137 55 11.1 53 9.9
2012-01-11 07:16:58 51°22.618 3°3.16 55.2 11.1 52 8.7
2012-01-11 07:17:02 51°22.625 3°3.176 56 10.9 52 7.9
2012-01-11 07:17:08 51°22.636 3°3.198 56 10.6 54 8.8
2012-01-11 07:17:12 51°22.643 3°3.213 56.7 10.6 52 9.3
2012-01-11 07:17:17 51°22.652 3°3.233 56.7 10.8 55 9.6
2012-01-11 07:17:22 51°22.661 3°3.252 57.5 11.1 54 10
2012-01-11 07:17:28 51°22.672 3°3.276 57.4 11.3 53 10.5
2012-01-11 07:17:32 51°22.679 3°3.292 56.6 11.3 53 10.7
2012-01-11 07:17:38 51°22.691 3°3.316 56.6 11.3 51 10.7
2012-01-11 07:17:43 51°22.701 3°3.336 55 11.3 52 10.7
2012-01-11 07:17:48 51°22.71 3°3.356 55.2 11.4 52 10.8
2012-01-11 07:17:52 51°22.718 3°3.371 55.6 11.4 51 10.6
2012-01-11 07:17:58 51°22.73 3°3.395 55 11.3 51 10.7
2012-01-11 07:18:03 51°22.74 3°3.414 54.2 11.3 49 10.6
2012-01-11 07:18:08 51°22.75 3°3.434 53.7 11.3 51 10.6
2012-01-11 07:18:12 51°22.758 3°3.448 52.7 11.3 48 10.6
2012-01-11 07:18:18 51°22.771 3°3.471 53.2 11.3 49 10.7
2012-01-11 07:18:23 51°22.782 3°3.489 52.3 11.3 46 10.5
2012-01-11 07:18:28 51°22.792 3°3.508 51.5 11.2 47 10.4
2012-01-11 07:18:32 51°22.801 3°3.522 50.6 11.3 46 10.3
2012-01-11 07:18:37 51°22.812 3°3.54 50.6 11.2 46 9.8
2012-01-11 07:18:42 51°22.822 3°3.558 50.2 11.2 46 9.9
2012-01-11 07:18:48 51°22.835 3°3.579 50.3 11.1 46 10
2012-01-11 07:18:52 51°22.843 3°3.594 50.7 11.1 48 10
2012-01-11 07:18:58 51°22.855 3°3.616 52.3 11.2 49 10.1
2012-01-11 07:19:03 51°22.866 3°3.635 52.8 11.1 48 10.1
2012-01-11 07:19:08 51°22.876 3°3.653 53.1 11.1 48 10
2012-01-11 07:19:12 51°22.884 3°3.667 52.1 11.2 48 10.4
2012-01-11 07:19:17 51°22.894 3°3.686 51.9 11.2 49 10.5
2012-01-11 07:19:23 51°22.907 3°3.708 52 11.1 47 10.2
2012-01-11 07:19:28 51°22.917 3°3.726 51.8 11.1 48 10.2
2012-01-11 07:19:32 51°22.926 3°3.74 52.1 11.1 48 10.2
2012-01-11 07:19:38 51°22.939 3°3.761 51.1 11.2 44 9.6
2012-01-11 07:19:43 51°22.949 3°3.78 50.5 11.1 49 9.7
2012-01-11 07:19:48 51°22.96 3°3.797 50.5 11.1 45 9.5
2012-01-11 07:19:52 51°22.968 3°3.812 51.6 11 48 9.4
2012-01-11 07:19:57 51°22.978 3°3.83 51.2 11.1 46 9.6
2012-01-11 07:20:02 51°22.988 3°3.848 51.5 11.1 50 9.7
2012-01-11 07:20:08 51°23 3°3.87 53 11.1 49 9.7
2012-01-11 07:20:12 51°23.008 3°3.886 54.6 11.1 52 9.7
2012-01-11 07:20:17 51°23.018 3°3.904 54.5 11 49 9.6
2012-01-11 07:20:23 51°23.029 3°3.928 55 11.1 52 9.8
2012-01-11 07:20:28 51°23.039 3°3.946 54.6 11.1 50 9.6
2012-01-11 07:20:32 51°23.046 3°3.962 56 11 54 9.2
2012-01-11 07:20:36 51°23.055 3°3.977 55.5 10.9 51 8.4
2012-01-11 07:20:42 51°23.065 3°4 56.9 10.8 53 8.7
2012-01-11 07:20:48 51°23.076 3°4.022 56.6 10.8 51 9.6
2012-01-11 07:20:52 51°23.084 3°4.038 56.3 10.8 53 10.2
2012-01-11 07:20:57 51°23.093 3°4.057 57 11.1 52 10.8
2012-01-11 07:21:02 51°23.103 3°4.077 56.4 11.2 52 11.2
2012-01-11 07:21:08 51°23.114 3°4.101 56 11.3 53 11.2
2012-01-11 07:21:12 51°23.122 3°4.116 55.6 11.4 51 11
2012-01-11 07:21:17 51°23.132 3°4.136 54.9 11.4 49 11.2
2012-01-11 07:21:22 51°23.143 3°4.154 53.1 11.3 48 11.2
2012-01-11 07:21:28 51°23.155 3°4.176 52.4 11.3 47 11.2
2012-01-11 07:21:32 51°23.164 3°4.191 51.6 11.3 46 11.4
2012-01-11 07:21:37 51°23.175 3°4.209 50.7 11.2 45 11.2
2012-01-11 07:21:42 51°23.186 3°4.227 50.9 11.2 47 11.3
2012-01-11 07:21:48 51°23.199 3°4.247 50.6 11.2 44 11.5
2012-01-11 07:21:52 51°23.208 3°4.261 49 11.2 44 11.3
2012-01-11 07:21:58 51°23.221 3°4.283 49.4 11.2 45 11.1
2012-01-11 07:22:02 51°23.23 3°4.296 49.5 11.3 44 11.4
2012-01-11 07:22:08 51°23.243 3°4.317 48.7 11.2 44 11.5
2012-01-11 07:22:12 51°23.252 3°4.331 48.6 11.2 44 11.5
2012-01-11 07:22:18 51°23.266 3°4.352 49.4 11.2 44 11.4
2012-01-11 07:22:23 51°23.277 3°4.369 48.9 11.2 45 11.3
2012-01-11 07:22:28 51°23.288 3°4.387 50.4 11.3 45 11.4
2012-01-11 07:22:32 51°23.297 3°4.401 49.4 11.3 44 11.5
2012-01-11 07:22:38 51°23.309 3°4.422 49.6 11.2 47 11.1
2012-01-11 07:22:43 51°23.321 3°4.44 50.6 11.3 44 11.3
2012-01-11 07:22:48 51°23.331 3°4.458 50.2 11.2 47 11.4
2012-01-11 07:22:52 51°23.34 3°4.473 51.7 11.2 47 11.3
2012-01-11 07:22:56 51°23.348 3°4.488 51.6 11.3 48 11.3
2012-01-11 07:23:02 51°23.361 3°4.509 51.3 11.3 45 11.3
2012-01-11 07:23:08 51°23.374 3°4.532 50.9 11.3 48 11.5
2012-01-11 07:23:12 51°23.382 3°4.546 51.9 11.2 47 11.4
2012-01-11 07:23:17 51°23.392 3°4.565 53 11.1 50 11.3
2012-01-11 07:23:22 51°23.402 3°4.584 53.6 11.2 50 11.4
2012-01-11 07:23:28 51°23.415 3°4.607 54.1 11.2 49 11.3
2012-01-11 07:23:32 51°23.423 3°4.621 53.7 11.2 49 11.5
2012-01-11 07:23:37 51°23.432 3°4.641 54.1 11.2 51 11.5
2012-01-11 07:23:43 51°23.444 3°4.664 54.3 11.2 50 11.4
2012-01-11 07:23:48 51°23.455 3°4.682 54.3 11.2 48 11.3
2012-01-11 07:23:52 51°23.463 3°4.697 53.4 11.1 49 11.4
2012-01-11 07:23:57 51°23.472 3°4.716 53.7 11.1 51 11.4
2012-01-11 07:24:03 51°23.484 3°4.739 55.4 11.1 53 11.4
2012-01-11 07:24:08 51°23.494 3°4.758 56 11.2 50 11.3
2012-01-11 07:24:12 51°23.501 3°4.774 55.4 11.2 51 11.2
2012-01-11 07:24:18 51°23.513 3°4.797 56 11.1 51 11.3
2012-01-11 07:24:22 51°23.52 3°4.812 55.6 11.1 51 11.2
2012-01-11 07:24:28 51°23.532 3°4.835 56 11 51 11.2
2012-01-11 07:24:32 51°23.54 3°4.85 54.8 11.1 49 11.7
2012-01-11 07:24:38 51°23.552 3°4.872 53.2 11 48 11.4
2012-01-11 07:24:43 51°23.562 3°4.89 52.8 11 48 11.3
2012-01-11 07:24:48 51°23.573 3°4.907 52.5 11 47 11.8
2012-01-11 07:24:52 51°23.581 3°4.922 52.3 11 48 11.8